createdAt,value
2018-09-12T00:01:08.187Z,18.47
2018-09-12T00:03:36.645Z,12.53
2018-09-12T00:06:05.090Z,11.43
2018-09-12T00:08:33.563Z,9.70
2018-09-12T00:11:02.044Z,11.20
2018-09-12T00:13:30.489Z,7.50
2018-09-12T00:15:58.949Z,11.33
2018-09-12T00:18:27.382Z,10.13
2018-09-12T00:20:56.041Z,8.83
2018-09-12T00:23:24.514Z,10.87
2018-09-12T00:25:53.232Z,8.57
2018-09-12T00:28:21.766Z,4.87
2018-09-12T00:30:51.553Z,10.10
2018-09-12T00:33:19.990Z,11.70
2018-09-12T00:35:48.470Z,13.93
2018-09-12T00:38:17.168Z,8.60
2018-09-12T00:40:45.659Z,9.00
2018-09-12T00:43:15.663Z,11.37
2018-09-12T00:45:44.295Z,8.97
2018-09-12T00:48:12.733Z,5.27
2018-09-12T00:50:41.200Z,6.70
2018-09-12T00:53:09.670Z,10.17
2018-09-12T00:55:38.174Z,7.90
2018-09-12T00:58:06.629Z,7.97
2018-09-12T01:00:35.129Z,9.80
2018-09-12T01:03:03.570Z,5.87
2018-09-12T01:05:32.799Z,6.97
2018-09-12T01:08:01.313Z,8.10
2018-09-12T01:10:29.750Z,8.50
2018-09-12T01:12:58.183Z,8.87
2018-09-12T01:15:26.738Z,10.97
2018-09-12T01:17:55.166Z,7.50
2018-09-12T01:20:23.812Z,5.33
2018-09-12T01:22:52.443Z,9.03
2018-09-12T01:25:20.877Z,8.20
2018-09-12T01:27:53.577Z,8.63
2018-09-12T01:30:23.373Z,10.77
2018-09-12T01:32:53.010Z,5.63
2018-09-12T01:35:21.725Z,8.03
2018-09-12T01:37:50.240Z,6.93
2018-09-12T01:40:18.686Z,7.33
2018-09-12T01:42:47.154Z,4.50
2018-09-12T01:45:16.957Z,7.67
2018-09-12T01:47:45.477Z,6.67
2018-09-12T01:50:14.230Z,6.60
2018-09-12T01:52:42.710Z,10.90
2018-09-12T01:55:11.150Z,6.87
2018-09-12T01:57:39.686Z,8.03
2018-09-12T02:00:13.667Z,5.30
2018-09-12T02:02:42.281Z,5.03
2018-09-12T02:05:10.741Z,3.63
2018-09-12T02:07:39.386Z,8.40
2018-09-12T02:10:09.545Z,9.00
2018-09-12T02:12:38.011Z,9.83
2018-09-12T02:15:06.860Z,7.93
2018-09-12T02:17:35.329Z,6.30
2018-09-12T02:20:04.201Z,7.93
2018-09-12T02:22:32.881Z,5.60
2018-09-12T02:25:01.731Z,7.73
2018-09-12T02:27:30.223Z,8.37
2018-09-12T02:29:58.741Z,10.97
2018-09-12T02:32:27.313Z,8.87
2018-09-12T02:34:56.218Z,4.97
2018-09-12T02:37:24.781Z,5.37
2018-09-12T02:39:53.389Z,9.00
2018-09-12T02:42:22.526Z,8.30
2018-09-12T02:44:51.546Z,6.43
2018-09-12T02:47:25.396Z,6.87
2018-09-12T02:49:54.318Z,8.07
2018-09-12T02:52:22.766Z,9.07
2018-09-12T02:54:51.559Z,3.50
2018-09-12T02:57:19.982Z,7.60
2018-09-12T02:59:48.441Z,7.23
2018-09-12T03:02:16.939Z,8.13
2018-09-12T03:04:45.403Z,4.20
2018-09-12T03:07:13.938Z,6.27
2018-09-12T03:09:42.544Z,8.20
2018-09-12T03:12:10.973Z,3.97
2018-09-12T03:14:39.393Z,7.63
2018-09-12T03:17:07.842Z,6.23
2018-09-12T03:19:36.306Z,7.93
2018-09-12T03:22:04.901Z,5.90
2018-09-12T03:24:33.680Z,6.53
2018-09-12T03:27:02.266Z,5.60
2018-09-12T03:29:30.750Z,6.43
2018-09-12T03:31:59.354Z,10.37
2018-09-12T03:34:27.842Z,10.50
2018-09-12T03:36:56.842Z,10.87
2018-09-12T03:39:25.455Z,3.30
2018-09-12T03:41:53.877Z,7.30
2018-09-12T03:44:22.330Z,8.20
2018-09-12T03:46:50.781Z,8.40
2018-09-12T03:49:19.204Z,7.03
2018-09-12T03:51:47.637Z,6.50
2018-09-12T03:54:16.122Z,9.33
2018-09-12T03:56:45.261Z,10.60
2018-09-12T03:59:14.398Z,10.50
2018-09-12T04:01:42.926Z,8.10
2018-09-12T04:04:11.357Z,10.20
2018-09-12T04:06:39.802Z,9.67
2018-09-12T04:09:09.221Z,7.33
2018-09-12T04:11:37.685Z,7.20
2018-09-12T04:14:06.193Z,9.10
2018-09-12T04:16:34.697Z,8.50
2018-09-12T04:19:03.141Z,10.20
2018-09-12T04:21:31.621Z,6.70
2018-09-12T04:24:00.093Z,8.93
2018-09-12T04:26:28.554Z,7.57
2018-09-12T04:28:57.423Z,8.73
2018-09-12T04:31:25.894Z,8.10
2018-09-12T04:33:54.337Z,13.03
2018-09-12T04:36:22.806Z,12.53
2018-09-12T04:38:52.142Z,9.63
2018-09-12T04:41:20.598Z,9.77
2018-09-12T04:43:49.030Z,8.60
2018-09-12T04:46:17.477Z,6.40
2018-09-12T04:48:45.953Z,11.67
2018-09-12T04:51:14.389Z,6.00
2018-09-12T04:53:42.865Z,9.87
2018-09-12T04:56:11.434Z,8.67
2018-09-12T04:58:41.221Z,11.47
2018-09-12T05:01:10.050Z,7.73
2018-09-12T05:03:38.485Z,10.80
2018-09-12T05:06:07.176Z,9.13
2018-09-12T05:08:35.661Z,12.37
2018-09-12T05:11:04.098Z,7.97
2018-09-12T05:13:32.552Z,15.10
2018-09-12T05:16:01.078Z,11.53
2018-09-12T05:18:29.465Z,6.63
2018-09-12T05:20:57.923Z,13.07
2018-09-12T05:23:26.418Z,9.13
2018-09-12T05:25:54.874Z,11.37
2018-09-12T05:28:23.376Z,13.03
2018-09-12T05:30:53.217Z,10.03
2018-09-12T05:33:22.034Z,11.60
2018-09-12T05:35:50.550Z,11.67
2018-09-12T05:38:19.284Z,8.20
2018-09-12T05:40:48.000Z,10.53
2018-09-12T05:43:16.455Z,10.47
2018-09-12T05:45:44.968Z,10.43
2018-09-12T05:48:13.456Z,12.40
2018-09-12T05:50:41.902Z,13.07
2018-09-12T05:53:10.390Z,13.47
2018-09-12T05:55:38.832Z,9.00
2018-09-12T05:58:07.618Z,12.20
2018-09-12T06:00:36.194Z,18.60
2018-09-12T06:03:04.783Z,13.77
2018-09-12T06:05:33.269Z,13.03
2018-09-12T06:08:01.851Z,14.17
2018-09-12T06:10:30.295Z,11.73
2018-09-12T06:12:58.721Z,10.87
2018-09-12T06:15:27.177Z,11.27
2018-09-12T06:17:55.717Z,13.13
2018-09-12T06:20:24.176Z,14.07
2018-09-12T06:22:52.653Z,11.03
2018-09-12T06:25:27.229Z,11.87
2018-09-12T06:27:55.745Z,5.67
2018-09-12T06:30:33.098Z,8.80
2018-09-12T06:33:02.873Z,8.53
2018-09-12T06:35:31.399Z,5.10
2018-09-12T06:37:59.881Z,9.43
2018-09-12T06:40:28.447Z,11.27
2018-09-12T06:42:57.462Z,11.03
2018-09-12T06:45:25.897Z,9.43
2018-09-12T06:47:54.428Z,10.57
2018-09-12T06:50:22.873Z,9.90
2018-09-12T06:52:51.410Z,10.70
2018-09-12T06:55:19.874Z,9.13
2018-09-12T06:57:48.414Z,14.43
2018-09-12T07:00:16.889Z,10.73
2018-09-12T07:02:46.238Z,6.33
2018-09-12T07:05:15.083Z,12.03
2018-09-12T07:07:43.613Z,8.30
2018-09-12T07:10:12.156Z,12.13
2018-09-12T07:12:40.600Z,9.95
2018-09-12T07:15:09.093Z,8.98
2018-09-12T07:17:37.545Z,8.35
2018-09-12T07:20:06.042Z,5.22
2018-09-12T07:22:34.474Z,5.53
2018-09-12T07:25:02.948Z,11.00
2018-09-12T07:27:31.389Z,9.43
2018-09-12T07:29:59.901Z,12.23
2018-09-12T07:32:28.357Z,5.08
2018-09-12T07:34:56.937Z,7.10
2018-09-12T07:37:25.881Z,6.42
2018-09-12T07:39:54.517Z,11.05
2018-09-12T07:42:23.246Z,5.05
2018-09-12T07:44:52.143Z,9.65
2018-09-12T07:47:20.621Z,11.48
2018-09-12T07:49:49.049Z,9.95
2018-09-12T07:52:17.481Z,11.12
2018-09-12T07:54:46.014Z,10.88
2018-09-12T07:57:14.503Z,11.48
2018-09-12T07:59:43.694Z,8.25
2018-09-12T08:02:12.227Z,10.32
2018-09-12T08:04:41.580Z,9.08
2018-09-12T08:07:10.020Z,10.48
2018-09-12T08:09:38.465Z,7.00
2018-09-12T08:12:06.927Z,13.93
2018-09-12T08:14:35.355Z,9.95
2018-09-12T08:17:03.853Z,12.23
2018-09-12T08:19:32.282Z,12.68
2018-09-12T08:22:00.702Z,13.25
2018-09-12T08:24:29.174Z,10.15
2018-09-12T08:26:57.864Z,8.25
2018-09-12T08:29:26.350Z,7.87
2018-09-12T08:31:54.830Z,11.93
2018-09-12T08:34:23.261Z,11.68
2018-09-12T08:36:51.861Z,10.32
2018-09-12T08:39:20.364Z,9.53
2018-09-12T08:41:48.830Z,11.80
2018-09-12T08:44:17.386Z,16.87
2018-09-12T08:46:45.945Z,13.50
2018-09-12T08:49:15.080Z,8.13
2018-09-12T08:51:44.178Z,9.78
2018-09-12T08:54:12.721Z,9.20
2018-09-12T08:56:41.204Z,9.40
2018-09-12T08:59:09.601Z,9.50
2018-09-12T09:01:38.221Z,9.00
2018-09-12T09:04:07.104Z,8.23
2018-09-12T09:06:35.850Z,7.15
2018-09-12T09:09:06.750Z,8.60
2018-09-12T09:11:35.287Z,8.48
2018-09-12T09:14:04.786Z,8.35
2018-09-12T09:16:33.358Z,6.97
2018-09-12T09:19:02.476Z,9.35
2018-09-12T09:21:31.547Z,8.35
2018-09-12T09:24:00.155Z,8.38
2018-09-12T09:26:28.582Z,6.37
2018-09-12T09:28:57.213Z,8.35
2018-09-12T09:31:25.722Z,6.72
2018-09-12T09:33:54.302Z,8.63
2018-09-12T09:36:22.997Z,9.10
2018-09-12T09:38:51.897Z,7.58
2018-09-12T09:41:20.369Z,3.58
2018-09-12T09:43:48.791Z,8.38
2018-09-12T09:46:17.266Z,10.28
2018-09-12T09:48:45.990Z,5.35
2018-09-12T09:51:15.081Z,5.45
2018-09-12T09:53:44.500Z,9.40
2018-09-12T09:56:13.903Z,4.55
2018-09-12T09:58:43.253Z,7.70
2018-09-12T10:01:16.974Z,7.12
2018-09-12T10:03:51.158Z,6.62
2018-09-12T10:06:20.606Z,4.67
2018-09-12T10:08:56.946Z,5.53
2018-09-12T10:11:25.501Z,4.70
2018-09-12T10:13:53.969Z,5.70
2018-09-12T10:16:22.956Z,6.47
2018-09-12T10:18:51.470Z,5.33
2018-09-12T10:21:19.899Z,6.47
2018-09-12T10:23:48.442Z,4.42
2018-09-12T10:26:18.012Z,3.80
2018-09-12T10:28:46.483Z,5.25
2018-09-12T10:31:15.250Z,6.47
2018-09-12T10:33:43.752Z,4.00
2018-09-12T10:36:12.181Z,6.50
2018-09-12T10:38:40.613Z,6.87
2018-09-12T10:41:09.468Z,6.12
2018-09-12T10:43:37.869Z,3.33
2018-09-12T10:46:06.358Z,5.47
2018-09-12T10:48:34.840Z,4.83
2018-09-12T10:51:03.315Z,5.12
2018-09-12T10:53:31.950Z,6.15
2018-09-12T10:56:00.423Z,7.17
2018-09-12T10:58:29.399Z,4.87
2018-09-12T11:00:57.847Z,6.35
2018-09-12T11:03:26.365Z,9.75
2018-09-12T11:05:54.785Z,6.80
2018-09-12T11:08:23.377Z,4.50
2018-09-12T11:10:52.338Z,7.60
2018-09-12T11:13:20.775Z,4.45
2018-09-12T11:15:49.764Z,3.50
2018-09-12T11:18:18.234Z,6.60
2018-09-12T11:20:46.729Z,6.03
2018-09-12T11:23:15.153Z,6.75
2018-09-12T11:25:45.126Z,4.67
2018-09-12T11:28:13.541Z,6.42
2018-09-12T11:30:42.278Z,4.42
2018-09-12T11:33:11.202Z,5.70
2018-09-12T11:35:39.630Z,4.35
2018-09-12T11:38:08.088Z,3.58
2018-09-12T11:40:36.591Z,4.08
2018-09-12T11:43:05.210Z,3.95
2018-09-12T11:45:33.653Z,7.92
2018-09-12T11:48:02.125Z,3.10
2018-09-12T11:50:30.661Z,2.40
2018-09-12T11:52:59.124Z,3.42
2018-09-12T11:55:27.604Z,5.00
2018-09-12T11:57:56.080Z,6.50
2018-09-12T12:00:24.514Z,1.67
2018-09-12T12:02:52.997Z,5.22
2018-09-12T12:05:21.830Z,6.33
2018-09-12T12:07:50.966Z,8.25
2018-09-12T12:10:19.543Z,5.62
2018-09-12T12:12:48.090Z,2.67
2018-09-12T12:15:16.565Z,3.72
2018-09-12T12:17:45.071Z,3.42
2018-09-12T12:20:14.147Z,8.78
2018-09-12T12:22:42.674Z,4.72
2018-09-12T12:25:11.265Z,3.80
2018-09-12T12:27:39.802Z,4.58
2018-09-12T12:30:08.273Z,5.72
2018-09-12T12:32:36.850Z,5.53
2018-09-12T12:35:05.439Z,6.42
2018-09-12T12:37:33.933Z,3.98
2018-09-12T12:40:02.422Z,9.40
2018-09-12T12:42:30.854Z,2.33
2018-09-12T12:44:59.466Z,4.40
2018-09-12T12:47:28.280Z,4.45
2018-09-12T12:49:57.063Z,3.05
2018-09-12T12:52:25.517Z,4.30
2018-09-12T12:54:54.050Z,4.10
2018-09-12T12:57:23.073Z,3.60
2018-09-12T12:59:51.498Z,4.53
2018-09-12T13:02:19.986Z,3.62
2018-09-12T13:04:48.425Z,9.23
2018-09-12T13:07:16.898Z,7.80
2018-09-12T13:09:45.374Z,3.45
2018-09-12T13:12:13.814Z,4.45
2018-09-12T13:14:42.557Z,4.00
2018-09-12T13:17:11.011Z,5.47
2018-09-12T13:19:39.458Z,4.62
2018-09-12T13:22:07.913Z,7.87
2018-09-12T13:24:36.402Z,5.33
2018-09-12T13:27:04.830Z,4.55
2018-09-12T13:29:33.379Z,5.28
2018-09-12T13:32:01.993Z,4.22
2018-09-12T13:34:30.763Z,4.20
2018-09-12T13:36:59.146Z,5.55
2018-09-12T13:39:28.791Z,2.75
2018-09-12T13:41:57.223Z,3.60
2018-09-12T13:44:25.732Z,4.45
2018-09-12T13:46:54.329Z,4.33
2018-09-12T13:49:22.760Z,4.17
2018-09-12T13:51:51.915Z,2.37
2018-09-12T13:54:20.416Z,3.37
2018-09-12T13:56:49.188Z,3.05
2018-09-12T13:59:17.628Z,4.42
2018-09-12T14:01:46.916Z,6.65
2018-09-12T14:04:16.226Z,5.65
2018-09-12T14:06:44.729Z,4.35
2018-09-12T14:09:13.221Z,1.67
2018-09-12T14:11:41.690Z,5.47
2018-09-12T14:14:10.420Z,6.45
2018-09-12T14:16:39.396Z,4.10
2018-09-12T14:19:07.854Z,5.25
2018-09-12T14:21:36.292Z,3.95
2018-09-12T14:24:04.918Z,2.92
2018-09-12T14:26:33.354Z,4.53
2018-09-12T14:29:01.781Z,3.80
2018-09-12T14:31:30.653Z,3.87
2018-09-12T14:33:59.133Z,2.02
2018-09-12T14:36:27.574Z,4.03
2018-09-12T14:38:56.082Z,7.12
2018-09-12T14:41:24.526Z,5.45
2018-09-12T14:43:52.962Z,4.00
2018-09-12T14:46:21.470Z,5.15
2018-09-12T14:48:50.069Z,5.65
2018-09-12T14:51:18.510Z,6.42
2018-09-12T14:53:47.073Z,4.92
2018-09-12T14:56:16.075Z,6.22
2018-09-12T14:58:44.809Z,4.17
2018-09-12T15:01:13.595Z,4.20
2018-09-12T15:03:42.051Z,2.62
2018-09-12T15:06:10.755Z,5.20
2018-09-12T15:08:39.240Z,5.25
2018-09-12T15:11:07.733Z,4.72
2018-09-12T15:13:36.177Z,3.75
2018-09-12T15:16:04.931Z,3.20
2018-09-12T15:18:33.706Z,6.80
2018-09-12T15:21:02.145Z,4.05
2018-09-12T15:23:30.602Z,4.15
2018-09-12T15:25:59.042Z,6.40
2018-09-12T15:28:27.506Z,3.22
2018-09-12T15:30:56.475Z,3.45
2018-09-12T15:33:25.028Z,5.55
2018-09-12T15:35:53.502Z,3.67
2018-09-12T15:38:22.445Z,5.37
2018-09-12T15:40:50.951Z,2.65
2018-09-12T15:43:19.459Z,3.40
2018-09-12T15:45:47.930Z,5.28
2018-09-12T15:48:17.003Z,3.80
2018-09-12T15:50:46.071Z,5.00
2018-09-12T15:53:14.749Z,3.65
2018-09-12T15:55:43.187Z,4.33
2018-09-12T15:58:11.644Z,2.55
2018-09-12T16:00:40.118Z,4.65
2018-09-12T16:03:08.553Z,4.50
2018-09-12T16:05:37.066Z,8.00
2018-09-12T16:08:05.794Z,1.98
2018-09-12T16:10:34.245Z,3.70
2018-09-12T16:13:02.717Z,3.33
2018-09-12T16:15:31.198Z,2.50
2018-09-12T16:18:00.337Z,4.20
2018-09-12T16:20:28.997Z,2.95
2018-09-12T16:22:57.450Z,7.12
2018-09-12T16:25:25.935Z,8.65
2018-09-12T16:27:54.381Z,3.50
2018-09-12T16:30:22.844Z,2.58
2018-09-12T16:32:51.363Z,2.92
2018-09-12T16:35:19.893Z,6.95
2018-09-12T16:37:48.357Z,3.35
2018-09-12T16:40:17.101Z,4.78
2018-09-12T16:42:46.034Z,4.35
2018-09-12T16:45:14.862Z,5.10
2018-09-12T16:47:43.705Z,5.60
2018-09-12T16:50:12.141Z,5.30
2018-09-12T16:52:40.950Z,3.87
2018-09-12T16:55:09.397Z,3.47
2018-09-12T16:57:37.821Z,3.33
2018-09-12T17:00:06.400Z,4.95
2018-09-12T17:02:35.138Z,5.97
2018-09-12T17:05:03.693Z,6.28
2018-09-12T17:07:32.146Z,3.65
2018-09-12T17:10:00.568Z,4.03
2018-09-12T17:12:29.346Z,4.03
2018-09-12T17:14:57.818Z,8.10
2018-09-12T17:17:26.261Z,7.53
2018-09-12T17:19:54.719Z,5.30
2018-09-12T17:22:23.312Z,2.03
2018-09-12T17:24:51.743Z,4.53
2018-09-12T17:27:20.163Z,4.97
2018-09-12T17:29:48.881Z,5.17
2018-09-12T17:32:17.357Z,5.13
2018-09-12T17:34:46.525Z,4.90
2018-09-12T17:37:15.548Z,4.83
2018-09-12T17:39:44.769Z,4.77
2018-09-12T17:42:13.208Z,9.23
2018-09-12T17:44:41.679Z,2.80
2018-09-12T17:47:10.133Z,7.20
2018-09-12T17:49:38.593Z,4.90
2018-09-12T17:52:07.097Z,2.77
2018-09-12T17:54:35.829Z,5.27
2018-09-12T17:57:04.303Z,4.30
2018-09-12T17:59:32.766Z,2.43
2018-09-12T18:02:01.498Z,6.77
2018-09-12T18:04:29.925Z,3.40
2018-09-12T18:06:58.370Z,4.63
2018-09-12T18:09:26.802Z,5.03
2018-09-12T18:11:55.298Z,4.03
2018-09-12T18:14:23.833Z,2.87
2018-09-12T18:16:52.285Z,4.23
2018-09-12T18:19:20.737Z,2.77
2018-09-12T18:21:49.289Z,3.23
2018-09-12T18:24:17.877Z,8.97
2018-09-12T18:26:46.381Z,3.33
2018-09-12T18:29:15.685Z,3.67
2018-09-12T18:31:44.134Z,5.17
2018-09-12T18:34:12.569Z,5.13
2018-09-12T18:36:41.332Z,5.93
2018-09-12T18:39:10.466Z,3.70
2018-09-12T18:41:38.942Z,7.43
2018-09-12T18:44:08.179Z,6.30
2018-09-12T18:46:36.639Z,4.07
2018-09-12T18:49:05.122Z,5.10
2018-09-12T18:51:33.618Z,6.70
2018-09-12T18:54:02.159Z,4.47
2018-09-12T18:56:30.681Z,3.13
2018-09-12T18:58:59.211Z,2.80
2018-09-12T19:01:27.694Z,4.13
2018-09-12T19:03:56.138Z,4.60
2018-09-12T19:06:24.633Z,5.77
2018-09-12T19:08:53.118Z,5.87
2018-09-12T19:11:21.666Z,5.37
2018-09-12T19:13:50.162Z,4.43
2018-09-12T19:16:18.634Z,5.13
2018-09-12T19:18:47.179Z,4.67
2018-09-12T19:21:16.560Z,4.87
2018-09-12T19:23:45.366Z,2.90
2018-09-12T19:26:14.274Z,4.60
2018-09-12T19:28:42.812Z,4.10
2018-09-12T19:31:11.259Z,3.43
2018-09-12T19:33:39.736Z,7.20
2018-09-12T19:36:08.517Z,4.07
2018-09-12T19:38:36.981Z,8.00
2018-09-12T19:41:05.437Z,5.67
2018-09-12T19:43:33.939Z,7.33
2018-09-12T19:46:02.414Z,4.03
2018-09-12T19:48:30.849Z,7.90
2018-09-12T19:50:59.348Z,5.43
2018-09-12T19:53:27.809Z,4.97
2018-09-12T19:55:56.269Z,4.27
2018-09-12T19:58:24.949Z,3.67
2018-09-12T20:00:53.969Z,4.53
2018-09-12T20:03:22.458Z,8.73
2018-09-12T20:05:50.973Z,3.07
2018-09-12T20:08:19.414Z,3.83
2018-09-12T20:10:47.891Z,6.47
2018-09-12T20:13:16.926Z,6.17
2018-09-12T20:15:45.457Z,8.77
2018-09-12T20:18:14.448Z,4.53
2018-09-12T20:20:42.989Z,7.47
2018-09-12T20:23:11.455Z,4.23
2018-09-12T20:25:40.094Z,5.93
2018-09-12T20:28:08.997Z,2.93
2018-09-12T20:30:37.446Z,4.17
2018-09-12T20:33:05.926Z,5.07
2018-09-12T20:35:34.419Z,5.83
2018-09-12T20:38:03.196Z,4.50
2018-09-12T20:40:31.681Z,4.27
2018-09-12T20:43:00.187Z,6.57
2018-09-12T20:45:28.640Z,3.27
2018-09-12T20:47:57.094Z,4.80
2018-09-12T20:50:25.641Z,4.93
2018-09-12T20:52:54.099Z,2.53
2018-09-12T20:55:22.529Z,3.10
2018-09-12T20:57:51.247Z,4.43
2018-09-12T21:00:19.958Z,4.83
2018-09-12T21:02:48.517Z,3.00
2018-09-12T21:05:17.097Z,4.20
2018-09-12T21:07:45.638Z,7.20
2018-09-12T21:10:14.089Z,3.27
2018-09-12T21:12:42.547Z,3.47
2018-09-12T21:15:10.986Z,4.30
2018-09-12T21:17:39.439Z,5.13
2018-09-12T21:20:08.000Z,4.67
2018-09-12T21:22:36.428Z,5.03
2018-09-12T21:25:04.953Z,5.77
2018-09-12T21:27:33.432Z,4.97
2018-09-12T21:30:02.141Z,4.63
2018-09-12T21:32:30.589Z,4.83
2018-09-12T21:34:59.065Z,4.90
2018-09-12T21:37:28.221Z,5.73
2018-09-12T21:39:56.672Z,4.53
2018-09-12T21:42:25.505Z,3.60
2018-09-12T21:44:54.481Z,3.30
2018-09-12T21:47:22.933Z,7.33
2018-09-12T21:49:51.419Z,1.47
2018-09-12T21:52:20.481Z,3.90
2018-09-12T21:54:48.929Z,3.27
2018-09-12T21:57:17.452Z,2.83
2018-09-12T21:59:45.901Z,1.80
2018-09-12T22:02:14.865Z,4.87
2018-09-12T22:04:43.353Z,2.53
2018-09-12T22:07:11.970Z,6.10
2018-09-12T22:09:40.424Z,5.83
2018-09-12T22:12:08.977Z,3.87
2018-09-12T22:14:37.403Z,4.23
2018-09-12T22:17:05.935Z,5.13
2018-09-12T22:19:34.824Z,5.23
2018-09-12T22:22:03.262Z,5.17
2018-09-12T22:24:31.734Z,3.97
2018-09-12T22:27:00.203Z,2.13
2018-09-12T22:29:29.017Z,6.73
2018-09-12T22:31:57.683Z,9.03
2018-09-12T22:34:26.160Z,2.90
2018-09-12T22:36:54.907Z,2.43
2018-09-12T22:39:23.349Z,3.23
2018-09-12T22:41:51.826Z,5.57
2018-09-12T22:44:20.361Z,3.87
2018-09-12T22:46:48.813Z,5.50
2018-09-12T22:49:17.265Z,4.27
2018-09-12T22:51:46.325Z,5.80
2018-09-12T22:54:14.757Z,3.50
2018-09-12T22:56:43.217Z,3.93
2018-09-12T22:59:11.657Z,6.87
2018-09-12T23:01:40.083Z,3.87
2018-09-12T23:04:09.006Z,6.80
2018-09-12T23:06:37.911Z,4.10
2018-09-12T23:09:08.265Z,3.50
2018-09-12T23:11:36.777Z,5.17
2018-09-12T23:14:06.043Z,3.13
2018-09-12T23:16:34.467Z,2.80
2018-09-12T23:19:02.950Z,3.73
2018-09-12T23:21:31.414Z,3.77
2018-09-12T23:23:59.885Z,7.47
2018-09-12T23:26:28.405Z,5.60
2018-09-12T23:28:56.826Z,5.90
2018-09-12T23:31:25.687Z,3.60
2018-09-12T23:33:54.514Z,3.60
2018-09-12T23:36:23.309Z,3.00
2018-09-12T23:38:51.793Z,3.67
2018-09-12T23:41:20.270Z,4.20
2018-09-12T23:43:49.041Z,5.47
2018-09-12T23:46:17.753Z,5.40
2018-09-12T23:48:46.953Z,5.93
2018-09-12T23:51:15.383Z,3.00
2018-09-12T23:53:43.810Z,7.93
2018-09-12T23:56:12.273Z,3.47
2018-09-12T23:58:40.843Z,4.93
